WMT7M LROP-LRBV
Flight info
| Callsign | WMT7M |
|---|---|
| Flight time | 0h 35m |
| Altitude | 17000 |
| Route | DENAK DCT LAPKA/N0374F160 DCT OBCAS |
| Aircraft | A320/M-SDE3FGHIRWY/LB1 |
Departure
| Time | 2026-05-05 14:58 |
|---|---|
| Airport | Bucharest Henri Coandă International Airport (LROP) |
Arrival
| Time | 2026-05-05 15:33 |
|---|---|
| Airport | Brașov-Ghimbav International Airport (LRBV) |
| Time | Latitude | Longitude | Altitude | Speed | Heading |
|---|---|---|---|---|---|
| 2026-05-05 14:35 | 44.57013 | 26.07961 | 317 ft | 0 kts | 353° |
| 2026-05-05 14:42 | 44.57012 | 26.07961 | 317 ft | 2 kts | 353° |
| 2026-05-05 14:43 | 44.56994 | 26.07963 | 315 ft | 2 kts | 353° |
| 2026-05-05 14:43 | 44.56977 | 26.07966 | 315 ft | 2 kts | 353° |
| 2026-05-05 14:43 | 44.56960 | 26.07969 | 314 ft | 2 kts | 353° |
| 2026-05-05 14:43 | 44.56943 | 26.07971 | 316 ft | 2 kts | 353° |
| 2026-05-05 14:44 | 44.56927 | 26.07974 | 314 ft | 2 kts | 353° |
| 2026-05-05 14:44 | 44.56911 | 26.07976 | 315 ft | 2 kts | 353° |
| 2026-05-05 14:44 | 44.56898 | 26.07978 | 316 ft | 0 kts | 353° |
| 2026-05-05 14:48 | 44.56911 | 26.07976 | 315 ft | 4 kts | 353° |
| 2026-05-05 14:48 | 44.56932 | 26.07988 | 315 ft | 2 kts | 89° |
| 2026-05-05 14:48 | 44.56931 | 26.08025 | 317 ft | 5 kts | 92° |
| 2026-05-05 14:49 | 44.56933 | 26.08081 | 317 ft | 7 kts | 81° |
| 2026-05-05 14:49 | 44.56940 | 26.08153 | 317 ft | 9 kts | 84° |
| 2026-05-05 14:49 | 44.56946 | 26.08253 | 316 ft | 12 kts | 85° |
| 2026-05-05 14:49 | 44.56974 | 26.08372 | 315 ft | 14 kts | 44° |
| 2026-05-05 14:50 | 44.57059 | 26.08378 | 316 ft | 13 kts | 1° |
| 2026-05-05 14:50 | 44.57160 | 26.08368 | 316 ft | 15 kts | 354° |
| 2026-05-05 14:50 | 44.57170 | 26.08367 | 316 ft | 1 kts | 354° |
| 2026-05-05 14:50 | 44.57178 | 26.08366 | 316 ft | 2 kts | 354° |
| 2026-05-05 14:51 | 44.57197 | 26.08363 | 316 ft | 3 kts | 354° |
| 2026-05-05 14:51 | 44.57221 | 26.08379 | 317 ft | 5 kts | 41° |
| 2026-05-05 14:51 | 44.57234 | 26.08424 | 317 ft | 5 kts | 73° |
| 2026-05-05 14:51 | 44.57262 | 26.08481 | 319 ft | 20 kts | 32° |
| 2026-05-05 14:52 | 44.57448 | 26.08485 | 322 ft | 27 kts | 17° |
| 2026-05-05 14:52 | 44.57490 | 26.08651 | 323 ft | 11 kts | 83° |
| 2026-05-05 14:52 | 44.57524 | 26.08902 | 321 ft | 58 kts | 84° |
| 2026-05-05 14:52 | 44.57586 | 26.09735 | 319 ft | 83 kts | 85° |
| 2026-05-05 14:53 | 44.57604 | 26.10003 | 323 ft | 1 kts | 83° |
| 2026-05-05 14:53 | 44.57607 | 26.10023 | 323 ft | 3 kts | 75° |
| 2026-05-05 14:53 | 44.57618 | 26.10117 | 323 ft | 30 kts | 84° |
| 2026-05-05 14:53 | 44.57643 | 26.10466 | 322 ft | 37 kts | 84° |
| 2026-05-05 14:54 | 44.57666 | 26.10845 | 313 ft | 41 kts | 85° |
| 2026-05-05 14:54 | 44.57701 | 26.11240 | 311 ft | 40 kts | 84° |
| 2026-05-05 14:54 | 44.57723 | 26.11515 | 315 ft | 27 kts | 81° |
| 2026-05-05 14:54 | 44.57743 | 26.11778 | 319 ft | 27 kts | 84° |
| 2026-05-05 14:55 | 44.57761 | 26.12055 | 318 ft | 30 kts | 84° |
| 2026-05-05 14:55 | 44.57785 | 26.12351 | 314 ft | 32 kts | 84° |
| 2026-05-05 14:55 | 44.57810 | 26.12682 | 311 ft | 35 kts | 83° |
| 2026-05-05 14:55 | 44.57851 | 26.12870 | 309 ft | 12 kts | 24° |
| 2026-05-05 14:56 | 44.57888 | 26.12848 | 309 ft | 8 kts | 320° |
| 2026-05-05 14:56 | 44.57939 | 26.12792 | 311 ft | 11 kts | 325° |
| 2026-05-05 14:56 | 44.57982 | 26.12706 | 310 ft | 12 kts | 278° |
| 2026-05-05 14:56 | 44.57982 | 26.12663 | 311 ft | 0 kts | 268° |
| 2026-05-05 14:57 | 44.57968 | 26.12463 | 315 ft | 54 kts | 264° |
| 2026-05-05 14:58 | 44.57906 | 26.11622 | 317 ft | 115 kts | 263° |
| 2026-05-05 14:58 | 44.57803 | 26.10290 | 382 ft | 152 kts | 263° |
| 2026-05-05 14:58 | 44.57693 | 26.08892 | 1065 ft | 147 kts | 261° |
| 2026-05-05 14:58 | 44.57571 | 26.07453 | 1626 ft | 150 kts | 263° |
| 2026-05-05 14:59 | 44.57461 | 26.05970 | 2169 ft | 159 kts | 265° |
| 2026-05-05 14:59 | 44.57719 | 26.04367 | 2482 ft | 184 kts | 304° |
| 2026-05-05 14:59 | 44.58848 | 26.03357 | 2761 ft | 210 kts | 352° |
| 2026-05-05 14:59 | 44.60347 | 26.03732 | 3147 ft | 235 kts | 25° |
| 2026-05-05 15:00 | 44.61819 | 26.04975 | 3598 ft | 259 kts | 35° |
| 2026-05-05 15:00 | 44.62813 | 26.06018 | 4097 ft | 267 kts | 37° |
| 2026-05-05 15:00 | 44.64742 | 26.08162 | 5448 ft | 268 kts | 37° |
| 2026-05-05 15:00 | 44.66212 | 26.09769 | 6483 ft | 267 kts | 36° |
| 2026-05-05 15:01 | 44.67698 | 26.11336 | 7441 ft | 268 kts | 35° |
| 2026-05-05 15:01 | 44.69213 | 26.12878 | 8369 ft | 270 kts | 33° |
| 2026-05-05 15:01 | 44.70917 | 26.13960 | 9263 ft | 271 kts | 11° |
| 2026-05-05 15:01 | 44.72799 | 26.13969 | 10115 ft | 275 kts | 349° |
| 2026-05-05 15:02 | 44.74754 | 26.13327 | 10500 ft | 296 kts | 348° |
| 2026-05-05 15:02 | 44.76798 | 26.12621 | 10866 ft | 313 kts | 347° |
| 2026-05-05 15:02 | 44.78963 | 26.11863 | 11558 ft | 319 kts | 348° |
| 2026-05-05 15:02 | 44.81124 | 26.11101 | 12315 ft | 322 kts | 348° |
| 2026-05-05 15:03 | 44.83304 | 26.10337 | 13080 ft | 324 kts | 348° |
| 2026-05-05 15:03 | 44.85506 | 26.09572 | 13838 ft | 327 kts | 349° |
| 2026-05-05 15:03 | 44.87725 | 26.08801 | 14489 ft | 330 kts | 349° |
| 2026-05-05 15:03 | 44.89970 | 26.08018 | 15108 ft | 334 kts | 349° |
| 2026-05-05 15:04 | 44.92242 | 26.07224 | 15713 ft | 338 kts | 348° |
| 2026-05-05 15:04 | 44.94537 | 26.06428 | 16315 ft | 342 kts | 348° |
| 2026-05-05 15:04 | 44.96077 | 26.05896 | 16693 ft | 345 kts | 348° |
| 2026-05-05 15:04 | 44.98432 | 26.05081 | 16953 ft | 350 kts | 348° |
| 2026-05-05 15:05 | 45.03232 | 26.03413 | 17013 ft | 358 kts | 348° |
| 2026-05-05 15:05 | 45.06474 | 26.02281 | 17013 ft | 359 kts | 348° |
| 2026-05-05 15:05 | 45.08077 | 26.01718 | 17013 ft | 359 kts | 348° |
| 2026-05-05 15:06 | 45.10499 | 26.00869 | 17021 ft | 359 kts | 348° |
| 2026-05-05 15:06 | 45.12906 | 26.00029 | 16856 ft | 351 kts | 348° |
| 2026-05-05 15:06 | 45.15247 | 25.99212 | 16397 ft | 345 kts | 348° |
| 2026-05-05 15:06 | 45.17580 | 25.98393 | 15765 ft | 346 kts | 348° |
| 2026-05-05 15:07 | 45.19894 | 25.97578 | 15385 ft | 339 kts | 348° |
| 2026-05-05 15:07 | 45.22159 | 25.96778 | 15021 ft | 333 kts | 348° |
| 2026-05-05 15:07 | 45.24385 | 25.95991 | 14657 ft | 327 kts | 348° |
| 2026-05-05 15:07 | 45.26573 | 25.95217 | 14298 ft | 321 kts | 349° |
| 2026-05-05 15:08 | 45.28726 | 25.94459 | 13921 ft | 316 kts | 348° |
| 2026-05-05 15:08 | 45.30844 | 25.93714 | 13535 ft | 312 kts | 348° |
| 2026-05-05 15:08 | 45.32936 | 25.92978 | 13133 ft | 308 kts | 348° |
| 2026-05-05 15:08 | 45.35011 | 25.92247 | 12733 ft | 306 kts | 348° |
| 2026-05-05 15:09 | 45.37070 | 25.91519 | 12346 ft | 304 kts | 348° |
| 2026-05-05 15:09 | 45.39114 | 25.90798 | 11964 ft | 302 kts | 347° |
| 2026-05-05 15:09 | 45.41145 | 25.90081 | 11586 ft | 300 kts | 347° |
| 2026-05-05 15:09 | 45.43168 | 25.89364 | 11211 ft | 299 kts | 347° |
| 2026-05-05 15:10 | 45.45179 | 25.88654 | 11022 ft | 297 kts | 347° |
| 2026-05-05 15:10 | 45.47194 | 25.87943 | 11020 ft | 299 kts | 347° |
| 2026-05-05 15:10 | 45.49219 | 25.87232 | 11019 ft | 300 kts | 347° |
| 2026-05-05 15:10 | 45.51250 | 25.86514 | 11016 ft | 301 kts | 347° |
| 2026-05-05 15:11 | 45.53282 | 25.85795 | 11023 ft | 301 kts | 347° |
| 2026-05-05 15:11 | 45.55315 | 25.85073 | 10986 ft | 300 kts | 347° |
| 2026-05-05 15:11 | 45.57343 | 25.84352 | 10560 ft | 301 kts | 346° |
| 2026-05-05 15:11 | 45.59319 | 25.83319 | 10074 ft | 305 kts | 336° |
| 2026-05-05 15:12 | 45.61244 | 25.82035 | 9551 ft | 306 kts | 335° |
| 2026-05-05 15:12 | 45.63182 | 25.80743 | 9031 ft | 308 kts | 335° |
| 2026-05-05 15:12 | 45.65133 | 25.79444 | 8521 ft | 310 kts | 335° |
| 2026-05-05 15:12 | 45.67094 | 25.78137 | 8012 ft | 311 kts | 335° |
| 2026-05-05 15:13 | 45.69058 | 25.76823 | 7517 ft | 312 kts | 335° |
| 2026-05-05 15:13 | 45.71026 | 25.75505 | 7022 ft | 313 kts | 335° |
| 2026-05-05 15:13 | 45.72997 | 25.74186 | 6543 ft | 313 kts | 335° |
| 2026-05-05 15:13 | 45.74963 | 25.72865 | 6036 ft | 310 kts | 335° |
| 2026-05-05 15:14 | 45.76873 | 25.71580 | 5531 ft | 297 kts | 335° |
| 2026-05-05 15:14 | 45.78713 | 25.70345 | 5084 ft | 286 kts | 335° |
| 2026-05-05 15:14 | 45.80417 | 25.69121 | 4972 ft | 262 kts | 325° |
| 2026-05-05 15:14 | 45.81509 | 25.67232 | 4974 ft | 238 kts | 290° |
| 2026-05-05 15:15 | 45.81654 | 25.64971 | 4676 ft | 230 kts | 256° |
| 2026-05-05 15:15 | 45.80825 | 25.63032 | 4122 ft | 233 kts | 220° |
| 2026-05-05 15:15 | 45.79522 | 25.61665 | 3665 ft | 231 kts | 216° |
| 2026-05-05 15:15 | 45.78236 | 25.60346 | 3345 ft | 224 kts | 217° |
| 2026-05-05 15:16 | 45.76986 | 25.59036 | 3044 ft | 216 kts | 217° |
| 2026-05-05 15:16 | 45.75814 | 25.57803 | 2781 ft | 200 kts | 217° |
| 2026-05-05 15:16 | 45.74774 | 25.56710 | 2528 ft | 177 kts | 216° |
| 2026-05-05 15:16 | 45.73829 | 25.55717 | 2313 ft | 162 kts | 216° |
| 2026-05-05 15:17 | 45.72950 | 25.54793 | 2093 ft | 150 kts | 216° |
| 2026-05-05 15:17 | 45.72122 | 25.53923 | 1884 ft | 146 kts | 217° |
| 2026-05-05 15:17 | 45.71416 | 25.53168 | 1791 ft | 145 kts | 217° |
| 2026-05-05 15:17 | 45.70661 | 25.52369 | 1780 ft | 130 kts | 217° |
| 2026-05-05 15:18 | 45.69896 | 25.51618 | 2358 ft | 134 kts | 212° |
| 2026-05-05 15:18 | 45.69125 | 25.50784 | 2902 ft | 149 kts | 221° |
| 2026-05-05 15:18 | 45.68273 | 25.49798 | 3515 ft | 164 kts | 218° |
| 2026-05-05 15:18 | 45.67349 | 25.48847 | 3842 ft | 156 kts | 216° |
| 2026-05-05 15:19 | 45.66494 | 25.47984 | 3746 ft | 148 kts | 216° |
| 2026-05-05 15:19 | 45.65649 | 25.47130 | 3510 ft | 149 kts | 216° |
| 2026-05-05 15:19 | 45.64808 | 25.46275 | 3285 ft | 149 kts | 216° |
| 2026-05-05 15:19 | 45.63966 | 25.45415 | 3037 ft | 148 kts | 215° |
| 2026-05-05 15:20 | 45.63136 | 25.44566 | 2973 ft | 147 kts | 216° |
| 2026-05-05 15:20 | 45.62296 | 25.43703 | 2982 ft | 149 kts | 217° |
| 2026-05-05 15:20 | 45.61454 | 25.42838 | 2984 ft | 149 kts | 216° |
| 2026-05-05 15:20 | 45.60614 | 25.41973 | 2985 ft | 149 kts | 216° |
| 2026-05-05 15:21 | 45.59775 | 25.41107 | 2984 ft | 149 kts | 217° |
| 2026-05-05 15:21 | 45.59042 | 25.40080 | 2980 ft | 148 kts | 233° |
| 2026-05-05 15:21 | 45.58528 | 25.38811 | 2978 ft | 147 kts | 250° |
| 2026-05-05 15:21 | 45.58264 | 25.37395 | 2989 ft | 149 kts | 264° |
| 2026-05-05 15:22 | 45.58275 | 25.35918 | 2996 ft | 149 kts | 280° |
| 2026-05-05 15:22 | 45.58555 | 25.34509 | 2998 ft | 148 kts | 295° |
| 2026-05-05 15:22 | 45.59074 | 25.33287 | 3207 ft | 137 kts | 316° |
| 2026-05-05 15:22 | 45.59856 | 25.32618 | 3972 ft | 129 kts | 344° |
| 2026-05-05 15:23 | 45.60706 | 25.32076 | 4493 ft | 144 kts | 330° |
| 2026-05-05 15:23 | 45.61722 | 25.31440 | 4590 ft | 180 kts | 347° |
| 2026-05-05 15:23 | 45.63066 | 25.31399 | 4584 ft | 205 kts | 11° |
| 2026-05-05 15:23 | 45.64424 | 25.32233 | 4553 ft | 226 kts | 36° |
| 2026-05-05 15:24 | 45.65521 | 25.33977 | 4563 ft | 236 kts | 61° |
| 2026-05-05 15:24 | 45.66110 | 25.35965 | 4571 ft | 199 kts | 68° |
| 2026-05-05 15:24 | 45.66590 | 25.37665 | 4576 ft | 172 kts | 68° |
| 2026-05-05 15:24 | 45.67018 | 25.39165 | 4573 ft | 157 kts | 67° |
| 2026-05-05 15:25 | 45.67424 | 25.40585 | 4576 ft | 152 kts | 67° |
| 2026-05-05 15:25 | 45.67822 | 25.41978 | 4580 ft | 151 kts | 68° |
| 2026-05-05 15:25 | 45.68222 | 25.43365 | 4585 ft | 151 kts | 64° |
| 2026-05-05 15:25 | 45.68870 | 25.44534 | 4583 ft | 151 kts | 46° |
| 2026-05-05 15:26 | 45.69607 | 25.45599 | 4586 ft | 151 kts | 45° |
| 2026-05-05 15:26 | 45.70346 | 25.46662 | 4594 ft | 150 kts | 45° |
| 2026-05-05 15:26 | 45.71073 | 25.47706 | 4587 ft | 148 kts | 45° |
| 2026-05-05 15:26 | 45.71794 | 25.48739 | 4588 ft | 147 kts | 45° |
| 2026-05-05 15:27 | 45.72513 | 25.49771 | 4588 ft | 146 kts | 45° |
| 2026-05-05 15:27 | 45.73238 | 25.50812 | 4585 ft | 148 kts | 44° |
| 2026-05-05 15:27 | 45.73967 | 25.51858 | 4587 ft | 148 kts | 44° |
| 2026-05-05 15:27 | 45.74697 | 25.52905 | 4588 ft | 149 kts | 44° |
| 2026-05-05 15:28 | 45.75426 | 25.53953 | 4585 ft | 149 kts | 45° |
| 2026-05-05 15:28 | 45.76156 | 25.55002 | 4587 ft | 149 kts | 44° |
| 2026-05-05 15:28 | 45.76883 | 25.56049 | 4587 ft | 148 kts | 43° |
| 2026-05-05 15:28 | 45.77605 | 25.57090 | 4585 ft | 147 kts | 44° |
| 2026-05-05 15:29 | 45.78328 | 25.58130 | 4587 ft | 147 kts | 44° |
| 2026-05-05 15:29 | 45.79050 | 25.59173 | 4586 ft | 147 kts | 44° |
| 2026-05-05 15:29 | 45.79769 | 25.60213 | 4586 ft | 147 kts | 43° |
| 2026-05-05 15:29 | 45.80490 | 25.61256 | 4587 ft | 147 kts | 43° |
| 2026-05-05 15:30 | 45.81076 | 25.62446 | 4550 ft | 150 kts | 82° |
| 2026-05-05 15:30 | 45.80699 | 25.63743 | 4402 ft | 156 kts | 159° |
| 2026-05-05 15:30 | 45.79713 | 25.63543 | 4213 ft | 146 kts | 219° |
| 2026-05-05 15:30 | 45.79138 | 25.62359 | 4158 ft | 145 kts | 252° |
| 2026-05-05 15:31 | 45.78662 | 25.61090 | 4154 ft | 148 kts | 223° |
| 2026-05-05 15:31 | 45.77859 | 25.60167 | 4147 ft | 148 kts | 222° |
| 2026-05-05 15:31 | 45.77068 | 25.59218 | 4112 ft | 150 kts | 220° |
| 2026-05-05 15:31 | 45.76241 | 25.58293 | 3743 ft | 150 kts | 219° |
| 2026-05-05 15:32 | 45.75413 | 25.57399 | 3365 ft | 148 kts | 218° |
| 2026-05-05 15:32 | 45.74579 | 25.56513 | 2874 ft | 154 kts | 217° |
| 2026-05-05 15:32 | 45.73696 | 25.55580 | 2269 ft | 160 kts | 216° |
| 2026-05-05 15:32 | 45.72825 | 25.54663 | 2012 ft | 150 kts | 216° |
| 2026-05-05 15:33 | 45.71998 | 25.53790 | 1835 ft | 146 kts | 216° |
| 2026-05-05 15:33 | 45.71193 | 25.52957 | 1774 ft | 134 kts | 216° |
| 2026-05-05 15:33 | 45.70595 | 25.52329 | 1763 ft | 67 kts | 216° |
| 2026-05-05 15:33 | 45.70337 | 25.52056 | 1769 ft | 42 kts | 217° |
| 2026-05-05 15:34 | 45.70103 | 25.51812 | 1776 ft | 42 kts | 216° |
| 2026-05-05 15:34 | 45.69862 | 25.51565 | 1774 ft | 43 kts | 216° |
| 2026-05-05 15:34 | 45.69693 | 25.51379 | 1776 ft | 30 kts | 217° |
| 2026-05-05 15:34 | 45.69562 | 25.51401 | 1774 ft | 14 kts | 109° |
| 2026-05-05 15:35 | 45.69501 | 25.51521 | 1774 ft | 16 kts | 112° |
| 2026-05-05 15:35 | 45.69461 | 25.51600 | 1774 ft | 0 kts | 124° |
| 2026-05-05 15:35 | 45.69460 | 25.51603 | 1774 ft | 0 kts | 124° |